| time (UTC) | temp C | wind direction | speed KPH | gust KPH | rain 1hr cm | rain 24hr cm | rain mn cm | humidity % | barometer mb |
| 20260502122855 | 14 | 224 | 0.0 | 1.6 | 0.00 | 0.00 | 0.00 | 74 | 1010.4 |
| 20260502121856 | 14 | 223 | 0.0 | 1.6 | 0.00 | 0.00 | 0.00 | 74 | 1010.4 |
| 20260502120854 | 15 | 223 | 0.0 | 1.6 | 0.00 | 0.00 | 0.00 | 73 | 1010.3 |
| 20260502115855 | 15 | 223 | 0.0 | 0.0 | 0.00 | 0.00 | 0.00 | 73 | 1010.2 |
| 20260502114854 | 15 | 223 | 0.0 | 0.0 | 0.00 | 0.00 | 0.00 | 73 | 1010.0 |
| 20260502113854 | 15 | 223 | 0.0 | 1.6 | 0.00 | 0.00 | 0.00 | 72 | 1009.8 |
| 20260502112855 | 15 | 223 | 0.0 | 1.6 | 0.00 | 0.00 | 0.00 | 72 | 1009.6 |
| 20260502111855 | 15 | 223 | 0.0 | 0.0 | 0.00 | 0.00 | 0.00 | 71 | 1009.6 |
| 20260502110854 | 15 | 223 | 0.0 | 1.6 | 0.00 | 0.00 | 0.00 | 72 | 1009.6 |
| 20260502105855 | 15 | 220 | 0.0 | 1.6 | 0.00 | 0.00 | 0.00 | 71 | 1009.5 |
| 20260502104856 | 15 | 220 | 0.0 | 1.6 | 0.00 | 0.00 | 0.00 | 72 | 1009.1 |
| 20260502103855 | 15 | 220 | 0.0 | 1.6 | 0.00 | 0.00 | 0.00 | 71 | 1009.0 |
| 20260502102854 | 15 | 220 | 0.0 | 1.6 | 0.00 | 0.00 | 0.00 | 71 | 1009.0 |
| 20260502101856 | 15 | 220 | 0.0 | 1.6 | 0.00 | 0.00 | 0.00 | 72 | 1008.8 |
| 20260502100855 | 15 | 202 | 0.0 | 0.0 | 0.00 | 0.00 | 0.00 | 72 | 1008.6 |
| 20260502090855 | 16 | 188 | 0.0 | 0.0 | 0.00 | 0.00 | 0.00 | 73 | 1007.8 |
| 20260502070855 | 21 | 72 | 0.0 | 1.6 | 0.00 | 0.00 | 0.00 | 52 | 1006.2 |
| 20260502065854 | 22 | 1 | 0.0 | 1.6 | 0.00 | 0.00 | 0.00 | 52 | 1005.9 |
| 20260502064854 | 22 | 1 | 0.0 | 0.0 | 0.00 | 0.00 | 0.00 | 50 | 1005.6 |
| 20260502063854 | 23 | 120 | 0.0 | 0.0 | 0.00 | 0.00 | 0.00 | 48 | 1005.4 |
| 20260502062856 | 23 | 174 | 1.6 | 4.8 | 0.00 | 0.00 | 0.00 | 46 | 1005.1 |
| 20260502061854 | 23 | 190 | 3.2 | 8.0 | 0.00 | 0.00 | 0.00 | 45 | 1005.2 |
| 20260502060856 | 23 | 181 | 3.2 | 8.0 | 0.00 | 0.00 | 0.00 | 45 | 1005.0 |
| 20260502055855 | 23 | 183 | 3.2 | 8.0 | 0.00 | 0.00 | 0.00 | 44 | 1004.9 |
| 20260502054854 | 24 | 188 | 3.2 | 11.3 | 0.00 | 0.00 | 0.00 | 45 | 1004.8 |
| 20260502053855 | 24 | 236 | 1.6 | 3.2 | 0.00 | 0.00 | 0.00 | 44 | 1004.9 |
| 20260502052854 | 25 | 228 | 1.6 | 4.8 | 0.00 | 0.00 | 0.00 | 45 | 1004.9 |
| 20260502051854 | 25 | 211 | 1.6 | 4.8 | 0.00 | 0.00 | 0.00 | 44 | 1005.0 |
| 20260502050855 | 25 | 205 | 1.6 | 4.8 | 0.00 | 0.00 | 0.00 | 45 | 1004.9 |
| 20260502045855 | 25 | 129 | 1.6 | 1.6 | 0.00 | 0.00 | 0.00 | 44 | 1004.8 |
| 20260502044854 | 25 | 121 | 1.6 | 1.6 | 0.00 | 0.00 | 0.00 | 43 | 1004.8 |
| 20260502043854 | 25 | 166 | 0.0 | 4.8 | 0.00 | 0.00 | 0.00 | 43 | 1004.8 |
| 20260502042856 | 25 | 52 | 0.0 | 3.2 | 0.00 | 0.00 | 0.00 | 40 | 1004.9 |
| 20260502041855 | 25 | 300 | 0.0 | 1.6 | 0.00 | 0.00 | 0.00 | 41 | 1004.8 |
| 20260502040854 | 25 | 161 | 0.0 | 1.6 | 0.00 | 0.00 | 0.00 | 40 | 1004.8 |
| 20260502035854 | 25 | 176 | 1.6 | 4.8 | 0.00 | 0.03 | 0.00 | 38 | 1004.8 |
| 20260502034855 | 25 | 191 | 1.6 | 1.6 | 0.00 | 0.03 | 0.00 | 33 | 1005.0 |
| 20260502033855 | 25 | 68 | 1.6 | 3.2 | 0.00 | 0.03 | 0.00 | 32 | 1005.0 |
| 20260502032855 | 25 | 141 | 1.6 | 3.2 | 0.00 | 0.03 | 0.00 | 35 | 1004.7 |
| 20260502031855 | 25 | 352 | 1.6 | 3.2 | 0.00 | 0.05 | 0.00 | 39 | 1004.7 |
| 20260502030854 | 25 | 143 | 0.0 | 1.6 | 0.00 | 0.20 | 0.00 | 40 | 1004.7 |
| 20260502025855 | 25 | 247 | 0.0 | 1.6 | 0.00 | 0.23 | 0.00 | 40 | 1004.8 |
| 20260502025658 | 25 | 218 | 0.0 | 1.6 | 0.00 | 0.25 | 0.00 | 40 | 1004.8 |
| 20260502024854 | 25 | 156 | 1.6 | 3.2 | 0.00 | 0.43 | 0.00 | 40 | 1004.8 |
| 20260502023855 | 24 | 117 | 1.6 | 4.8 | 0.00 | 0.46 | 0.00 | 39 | 1004.7 |
| 20260502022855 | 24 | 230 | 3.2 | 4.8 | 0.00 | 0.53 | 0.00 | 38 | 1004.8 |
| 20260502021855 | 24 | 185 | 1.6 | 1.6 | 0.00 | 0.66 | 0.00 | 37 | 1004.6 |
| 20260502020854 | 23 | 228 | 1.6 | 3.2 | 0.00 | 0.81 | 0.00 | 42 | 1004.5 |
| 20260502015855 | 23 | 58 | 0.0 | 1.6 | 0.00 | 1.02 | 0.00 | 44 | 1004.6 |
| 20260502014854 | 24 | 70 | 1.6 | 1.6 | 0.00 | 1.50 | 0.00 | 42 | 1004.6 |
| 20260502013854 | 24 | 268 | 1.6 | 1.6 | 0.00 | 1.73 | 0.00 | 41 | 1004.5 |
| 20260502012855 | 23 | 340 | 0.0 | 1.6 | 0.00 | 1.88 | 0.00 | 42 | 1004.2 |
| 20260502011855 | 23 | 130 | 0.0 | 1.6 | 0.00 | 1.93 | 0.00 | 47 | 1004.2 |
| 20260502011657 | 23 | 282 | 1.6 | 3.2 | 0.00 | 1.98 | 0.00 | 46 | 1004.3 |
| 20260502010854 | 22 | 135 | 3.2 | 11.3 | 0.00 | 2.06 | 0.00 | 48 | 1004.1 |
| 20260502005855 | 22 | 128 | 0.0 | 3.2 | 0.00 | 2.13 | 0.00 | 53 | 1003.9 |
| 20260502004855 | 21 | 151 | 3.2 | 3.2 | 0.00 | 2.16 | 0.00 | 54 | 1003.8 |
| 20260502003854 | 21 | 201 | 3.2 | 8.0 | 0.00 | 2.26 | 0.00 | 54 | 1003.8 |
| 20260502002855 | 21 | 166 | 1.6 | 4.8 | 0.00 | 2.59 | 0.00 | 54 | 1003.7 |
| 20260502001855 | 20 | 222 | 1.6 | 4.8 | 0.00 | 2.84 | 0.00 | 55 | 1003.6 |
| 20260502000855 | 20 | 180 | 1.6 | 4.8 | 0.00 | 2.92 | 0.00 | 54 | 1003.7 |
| 20260501235854 | 20 | 162 | 1.6 | 4.8 | 0.00 | 2.97 | 0.00 | 60 | 1003.7 |
| 20260501235657 | 20 | 232 | 1.6 | 4.8 | 0.00 | 2.97 | 0.00 | 59 | 1003.7 |
| 20260501234854 | 20 | 101 | 1.6 | 3.2 | 0.00 | 3.05 | 0.00 | 60 | 1003.7 |
| 20260501233854 | 20 | 226 | 3.2 | 4.8 | 0.00 | 3.17 | 0.00 | 62 | 1003.7 |
| 20260501232855 | 20 | 291 | 1.6 | 1.6 | 0.00 | 3.43 | 0.00 | 61 | 1003.6 |
| 20260501231855 | 20 | 187 | 3.2 | 4.8 | 0.00 | 3.68 | 0.00 | 60 | 1003.5 |
| 20260501230854 | 18 | 148 | 3.2 | 9.7 | 0.00 | 3.96 | 0.00 | 62 | 1003.3 |
| 20260501225855 | 18 | 205 | 3.2 | 11.3 | 0.00 | 4.32 | 0.00 | 63 | 1003.2 |
| 20260501224855 | 18 | 184 | 4.8 | 11.3 | 0.00 | 4.65 | 0.00 | 64 | 1003.0 |
| 20260501223854 | 18 | 174 | 3.2 | 9.7 | 0.00 | 5.11 | 0.00 | 66 | 1002.8 |
| 20260501223656 | 18 | 179 | 1.6 | 9.7 | 0.00 | 5.18 | 0.00 | 66 | 1002.7 |
| 20260501222855 | 18 | 198 | 3.2 | 8.0 | 0.00 | 5.59 | 0.00 | 65 | 1002.8 |
| 20260501221854 | 17 | 216 | 4.8 | 8.0 | 0.00 | 6.02 | 0.00 | 65 | 1002.6 |
| 20260501221657 | 17 | 186 | 3.2 | 9.7 | 0.00 | 6.07 | 0.00 | 65 | 1002.5 |
| 20260501220854 | 17 | 230 | 3.2 | 9.7 | 0.00 | 6.40 | 0.00 | 64 | 1002.2 |
| 20260501215855 | 17 | 158 | 1.6 | 4.8 | 0.00 | 6.86 | 0.00 | 63 | 1002.2 |
| 20260501215658 | 17 | 200 | 3.2 | 4.8 | 0.00 | 6.93 | 0.00 | 62 | 1002.3 |
| 20260501214855 | 17 | 218 | 3.2 | 9.7 | 0.00 | 7.19 | 0.00 | 62 | 1002.0 |
| 20260501213854 | 17 | 207 | 1.6 | 3.2 | 0.00 | 7.49 | 0.00 | 64 | 1001.9 |
| 20260501213658 | 17 | 174 | 1.6 | 4.8 | 0.00 | 7.54 | 0.00 | 64 | 1001.9 |
| 20260501212854 | 16 | 107 | 0.0 | 3.2 | 0.00 | 7.75 | 0.00 | 65 | 1001.6 |
| 20260501211855 | 16 | 155 | 1.6 | 3.2 | 0.00 | 7.98 | 0.00 | 66 | 1001.2 |
| 20260501210855 | 16 | 188 | 1.6 | 4.8 | 0.00 | 8.18 | 0.00 | 68 | 1000.8 |
| 20260501205854 | 15 | 162 | 1.6 | 3.2 | 0.00 | 8.36 | 0.00 | 69 | 1000.5 |
| 20260501204855 | 15 | 118 | 1.6 | 4.8 | 0.00 | 8.53 | 0.00 | 71 | 1000.4 |
| 20260501203855 | 13 | 161 | 0.0 | 3.2 | 0.00 | 8.71 | 0.00 | 76 | 1000.1 |
| 20260501202854 | 12 | 214 | 1.6 | 4.8 | 0.00 | 8.94 | 0.00 | 79 | 999.8 |
| 20260501201855 | 11 | 201 | 1.6 | 4.8 | 0.00 | 9.09 | 0.00 | 83 | 999.6 |
| 20260501200854 | 11 | 199 | 0.0 | 1.6 | 0.00 | 9.19 | 0.00 | 85 | 999.3 |
| 20260501195854 | 11 | 190 | 1.6 | 8.0 | 0.00 | 9.35 | 0.00 | 86 | 999.0 |
| 20260501195659 | 11 | 190 | 3.2 | 11.3 | 0.00 | 9.35 | 0.00 | 86 | 999.0 |
| 20260501194855 | 11 | 162 | 1.6 | 3.2 | 0.00 | 9.40 | 0.00 | 86 | 998.8 |
| 20260501193854 | 11 | 201 | 3.2 | 4.8 | 0.00 | 9.42 | 0.00 | 86 | 998.8 |
| 20260501193657 | 11 | 180 | 1.6 | 9.7 | 0.00 | 9.45 | 0.00 | 86 | 998.7 |
| 20260501192854 | 11 | 208 | 3.2 | 4.8 | 0.00 | 9.53 | 0.00 | 86 | 998.8 |
| 20260501191854 | 11 | 212 | 3.2 | 12.9 | 0.00 | 9.68 | 0.00 | 86 | 998.1 |
| 20260501191656 | 11 | 190 | 8.0 | 12.9 | 0.00 | 9.70 | 0.00 | 86 | 998.0 |
| 20260501190855 | 11 | 176 | 3.2 | 9.7 | 0.00 | 9.91 | 0.00 | 85 | 997.9 |
| 20260501185855 | 11 | 207 | 4.8 | 11.3 | 0.00 | 10.19 | 0.00 | 85 | 997.5 |
| 20260501184854 | 11 | 208 | 3.2 | 12.9 | 0.00 | 10.44 | 0.00 | 86 | 997.1 |
| 20260501183854 | 11 | 197 | 4.8 | 14.5 | 0.00 | 10.69 | 0.00 | 85 | 996.9 |
| 20260501183657 | 11 | 171 | 4.8 | 9.7 | 0.00 | 10.74 | 0.00 | 85 | 996.9 |
| 20260501182854 | 11 | 200 | 4.8 | 11.3 | 0.00 | 10.90 | 0.00 | 85 | 996.4 |
| 20260501181855 | 10 | 190 | 11.3 | 16.1 | 0.00 | 11.07 | 0.00 | 85 | 996.1 |
| 20260501180855 | 10 | 217 | 8.0 | 16.1 | 0.00 | 11.20 | 0.00 | 86 | 996.1 |
| 20260501175854 | 10 | 189 | 8.0 | 16.1 | 0.00 | 11.38 | 0.00 | 85 | 996.5 |
| 20260501174854 | 10 | 198 | 3.2 | 11.3 | 0.00 | 11.56 | 0.00 | 85 | 996.3 |
| 20260501173854 | 10 | 189 | 4.8 | 8.0 | 0.00 | 11.68 | 0.00 | 85 | 996.7 |
| 20260501173659 | 10 | 195 | 3.2 | 9.7 | 0.00 | 11.71 | 0.00 | 85 | 996.8 |
| 20260501172854 | 10 | 170 | 1.6 | 4.8 | 0.00 | 11.76 | 0.00 | 85 | 996.9 |
| 20260501171854 | 10 | 154 | 1.6 | 1.6 | 0.00 | 11.89 | 0.00 | 84 | 996.4 |
| 20260501170853 | 10 | 203 | 1.6 | 1.6 | 0.00 | 11.99 | 0.00 | 84 | 996.5 |
| 20260501165854 | 10 | 186 | 4.8 | 12.9 | 0.00 | 12.04 | 0.00 | 84 | 995.9 |
| 20260501165657 | 10 | 187 | 0.0 | 9.7 | 0.00 | 12.06 | 0.00 | 84 | 996.0 |
| 20260501164854 | 10 | 1 | 1.6 | 4.8 | 0.00 | 12.09 | 0.00 | 83 | 995.7 |
| 20260501163854 | 10 | 113 | 1.6 | 4.8 | 0.00 | 12.14 | 0.00 | 83 | 995.7 |
| 20260501163657 | 10 | 39 | 1.6 | 8.0 | 0.00 | 12.14 | 0.00 | 83 | 995.7 |
| 20260501162854 | 10 | 203 | 3.2 | 11.3 | 0.00 | 12.17 | 0.00 | 83 | 995.8 |
| 20260501161855 | 10 | 204 | 3.2 | 4.8 | 0.00 | 12.27 | 0.00 | 82 | 995.8 |
| 20260501161658 | 10 | 90 | 1.6 | 4.8 | 0.00 | 12.27 | 0.00 | 82 | 995.9 |
| 20260501160854 | 10 | 147 | 4.8 | 14.5 | 0.00 | 12.29 | 0.00 | 82 | 996.0 |
| 20260501155854 | 10 | 141 | 9.7 | 12.9 | 0.00 | 12.32 | 0.00 | 82 | 996.5 |
| 20260501155657 | 10 | 323 | 0.0 | 1.6 | 0.00 | 12.32 | 0.00 | 82 | 996.1 |
| 20260501154854 | 10 | 292 | 1.6 | 3.2 | 0.00 | 12.32 | 0.00 | 82 | 995.9 |
| 20260501153854 | 10 | 240 | 1.6 | 4.8 | 0.00 | 12.34 | 0.00 | 82 | 995.9 |
| 20260501153657 | 10 | 79 | 3.2 | 4.8 | 0.00 | 12.34 | 0.00 | 82 | 995.9 |
| 20260501152854 | 11 | 336 | 3.2 | 4.8 | 0.00 | 12.34 | 0.00 | 82 | 995.8 |
| 20260501151853 | 11 | 99 | 1.6 | 4.8 | 0.00 | 12.37 | 0.00 | 82 | 995.6 |
| 20260501151658 | 11 | 203 | 3.2 | 11.3 | 0.00 | 12.37 | 0.00 | 82 | 995.7 |
| 20260501150855 | 10 | 330 | 1.6 | 4.8 | 0.00 | 12.40 | 0.00 | 82 | 995.4 |
| 20260501145854 | 11 | 198 | 4.8 | 12.9 | 0.00 | 12.42 | 12.42 | 82 | 995.0 |
| 20260501145657 | 11 | 85 | 1.6 | 8.0 | 0.00 | 12.42 | 12.42 | 82 | 995.0 |
| 20260501144854 | 11 | 209 | 3.2 | 19.3 | 0.00 | 12.45 | 12.42 | 82 | 994.8 |
| 20260501143854 | 11 | 255 | 4.8 | 4.8 | 0.00 | 12.50 | 12.42 | 82 | 994.1 |
| 20260501142855 | 11 | 190 | 4.8 | 11.3 | 0.00 | 12.57 | 12.42 | 82 | 993.4 |
| 20260501141855 | 11 | 133 | 4.8 | 19.3 | 0.00 | 12.65 | 12.42 | 81 | 993.6 |
| 20260501141658 | 11 | 192 | 4.8 | 9.7 | 0.00 | 12.67 | 12.42 | 81 | 993.7 |